createdAt,value
2022-10-05T00:01:41.651Z,12.30
2022-10-05T00:04:15.694Z,12.30
2022-10-05T00:06:47.686Z,12.30
2022-10-05T00:09:17.717Z,12.90
2022-10-05T00:11:45.143Z,12.40
2022-10-05T00:14:26.079Z,12.40
2022-10-05T00:16:53.066Z,12.40
2022-10-05T00:19:27.255Z,12.50
2022-10-05T00:21:56.966Z,12.40
2022-10-05T00:24:23.809Z,12.40
2022-10-05T00:26:56.886Z,12.40
2022-10-05T00:29:24.713Z,12.50
2022-10-05T00:31:51.634Z,13.10
2022-10-05T00:34:18.571Z,12.50
2022-10-05T00:36:46.067Z,12.50
2022-10-05T00:39:14.488Z,12.60
2022-10-05T00:41:54.769Z,12.40
2022-10-05T00:44:37.305Z,12.50
2022-10-05T00:47:20.099Z,12.40
2022-10-05T00:50:14.181Z,13.00
2022-10-05T00:52:51.598Z,12.50
2022-10-05T00:55:30.397Z,12.60
2022-10-05T00:58:08.662Z,12.60
2022-10-05T01:00:47.142Z,12.50
2022-10-05T01:03:21.153Z,12.60
2022-10-05T01:06:00.928Z,12.60
2022-10-05T01:08:40.351Z,12.60
2022-10-05T01:11:18.868Z,12.60
2022-10-05T01:13:55.726Z,12.50
2022-10-05T01:16:29.987Z,12.50
2022-10-05T01:19:06.431Z,12.50
2022-10-05T01:21:40.188Z,12.50
2022-10-05T01:24:25.900Z,13.10
2022-10-05T01:27:21.440Z,12.60
2022-10-05T01:29:56.823Z,13.00
2022-10-05T01:32:31.866Z,12.50
2022-10-05T01:35:10.103Z,12.40
2022-10-05T01:37:45.292Z,12.40
2022-10-05T01:40:20.428Z,12.40
2022-10-05T01:42:58.308Z,12.40
2022-10-05T01:45:33.813Z,12.40
2022-10-05T01:48:08.660Z,12.40
2022-10-05T01:50:47.193Z,12.50
2022-10-05T01:53:24.152Z,12.50
2022-10-05T01:56:00.533Z,13.20
2022-10-05T01:58:50.006Z,12.50
2022-10-05T02:01:28.062Z,13.80
2022-10-05T02:04:03.039Z,12.50
2022-10-05T02:06:32.942Z,12.50
2022-10-05T02:09:05.908Z,13.10
2022-10-05T02:11:33.948Z,13.30
2022-10-05T02:14:07.246Z,12.40
2022-10-05T02:16:39.633Z,12.50
2022-10-05T02:19:14.618Z,12.40
2022-10-05T02:21:44.798Z,12.50
2022-10-05T02:24:17.353Z,12.60
2022-10-05T02:26:45.621Z,13.90
2022-10-05T02:29:17.275Z,12.70
2022-10-05T02:31:50.427Z,12.60
2022-10-05T02:34:22.723Z,12.60
2022-10-05T02:36:55.747Z,12.60
2022-10-05T02:39:32.882Z,12.60
2022-10-05T02:42:10.345Z,12.60
2022-10-05T02:44:45.551Z,12.50
2022-10-05T02:47:22.118Z,12.50
2022-10-05T02:49:57.402Z,12.50
2022-10-05T02:52:29.643Z,12.90
2022-10-05T02:55:09.202Z,12.60
2022-10-05T02:57:42.187Z,12.80
2022-10-05T03:00:13.510Z,13.90
2022-10-05T03:02:48.737Z,12.60
2022-10-05T03:05:21.759Z,12.60
2022-10-05T03:07:57.311Z,12.70
2022-10-05T03:10:29.945Z,12.70
2022-10-05T03:13:03.630Z,12.60
2022-10-05T03:15:51.416Z,12.70
2022-10-05T03:18:31.510Z,12.70
2022-10-05T03:21:09.432Z,13.40
2022-10-05T03:23:53.106Z,12.70
2022-10-05T03:26:34.077Z,12.80
2022-10-05T03:29:08.610Z,12.80
2022-10-05T03:31:43.686Z,12.80
2022-10-05T03:34:18.268Z,12.70
2022-10-05T03:36:53.473Z,12.70
2022-10-05T03:39:26.950Z,12.70
2022-10-05T03:42:00.731Z,12.70
2022-10-05T03:44:44.209Z,12.70
2022-10-05T03:47:23.363Z,12.70
2022-10-05T03:50:07.263Z,12.70
2022-10-05T03:52:39.579Z,12.70
2022-10-05T03:55:17.354Z,12.60
2022-10-05T03:57:45.764Z,12.60
2022-10-05T04:00:16.043Z,12.60
2022-10-05T04:02:48.091Z,12.60
2022-10-05T04:05:19.570Z,12.70
2022-10-05T04:07:52.059Z,12.70
2022-10-05T04:10:23.781Z,12.70
2022-10-05T04:12:55.489Z,12.70
2022-10-05T04:15:30.971Z,12.70
2022-10-05T04:18:03.514Z,12.70
2022-10-05T04:20:38.140Z,12.70
2022-10-05T04:23:16.610Z,12.70
2022-10-05T04:25:48.550Z,12.70
2022-10-05T04:28:25.185Z,12.70
2022-10-05T04:30:54.615Z,12.80
2022-10-05T04:33:21.995Z,12.80
2022-10-05T04:36:10.154Z,12.80
2022-10-05T04:38:45.636Z,12.70
2022-10-05T04:41:29.664Z,12.80
2022-10-05T04:44:12.694Z,12.70
2022-10-05T04:46:56.108Z,12.80
2022-10-05T04:49:58.153Z,12.80
2022-10-05T04:52:35.968Z,12.70
2022-10-05T04:55:10.181Z,13.90
2022-10-05T04:57:42.881Z,13.20
2022-10-05T05:00:22.857Z,12.70
2022-10-05T05:03:04.441Z,12.70
2022-10-05T05:05:58.666Z,12.70
2022-10-05T05:08:41.677Z,12.60
2022-10-05T05:11:24.874Z,12.60
2022-10-05T05:14:33.289Z,12.60
2022-10-05T05:17:17.067Z,12.50
2022-10-05T05:19:57.262Z,12.60
2022-10-05T05:22:31.436Z,12.60
2022-10-05T05:25:17.115Z,12.60
2022-10-05T05:27:48.748Z,12.60
2022-10-05T05:30:21.825Z,12.60
2022-10-05T05:33:04.338Z,12.60
2022-10-05T05:35:58.799Z,12.60
2022-10-05T05:38:31.652Z,12.60
2022-10-05T05:41:09.589Z,12.70
2022-10-05T05:43:53.294Z,12.60
2022-10-05T05:46:44.628Z,12.70
2022-10-05T05:49:17.923Z,12.70
2022-10-05T05:51:50.270Z,12.70
2022-10-05T05:54:31.233Z,12.70
2022-10-05T05:57:08.973Z,12.80
2022-10-05T05:59:53.638Z,12.80
2022-10-05T06:02:25.854Z,12.80
2022-10-05T06:04:56.823Z,13.00
2022-10-05T06:07:30.808Z,12.90
2022-10-05T06:10:05.502Z,14.20
2022-10-05T06:12:38.300Z,13.80
2022-10-05T06:15:16.820Z,12.80
2022-10-05T06:17:47.212Z,12.90
2022-10-05T06:20:22.094Z,13.00
2022-10-05T06:22:51.269Z,13.10
2022-10-05T06:25:28.678Z,13.20
2022-10-05T06:28:09.065Z,13.40
2022-10-05T06:30:48.481Z,13.30
2022-10-05T06:33:28.552Z,13.30
2022-10-05T06:36:06.834Z,13.40
2022-10-05T06:38:58.167Z,13.50
2022-10-05T06:41:35.861Z,13.60
2022-10-05T06:44:07.601Z,13.50
2022-10-05T06:46:39.716Z,13.70
2022-10-05T06:49:17.895Z,14.20
2022-10-05T06:51:51.207Z,13.70
2022-10-05T06:54:35.437Z,13.70
2022-10-05T06:57:09.935Z,13.60
2022-10-05T06:59:48.284Z,13.70
2022-10-05T07:02:23.696Z,14.70
2022-10-05T07:05:20.653Z,13.60
2022-10-05T07:07:53.507Z,13.60
2022-10-05T07:10:30.995Z,13.60
2022-10-05T07:13:12.290Z,13.60
2022-10-05T07:15:44.841Z,13.60
2022-10-05T07:18:50.262Z,13.60
2022-10-05T07:21:23.808Z,13.70
2022-10-05T07:24:01.191Z,13.70
2022-10-05T07:26:33.048Z,13.80
2022-10-05T07:29:23.286Z,13.80
2022-10-05T07:32:01.051Z,13.90
2022-10-05T07:34:37.862Z,14.00
2022-10-05T07:37:27.320Z,14.00
2022-10-05T07:40:05.318Z,14.30
2022-10-05T07:42:50.460Z,14.10
2022-10-05T07:45:27.846Z,14.20
2022-10-05T07:47:58.440Z,14.30
2022-10-05T07:50:32.070Z,14.40
2022-10-05T07:53:05.538Z,14.60
2022-10-05T07:55:36.868Z,14.80
2022-10-05T07:58:14.338Z,14.90
2022-10-05T08:01:03.023Z,14.80
2022-10-05T08:03:42.827Z,14.80
2022-10-05T08:06:12.811Z,14.90
2022-10-05T08:08:43.932Z,15.00
2022-10-05T08:11:16.906Z,15.10
2022-10-05T08:13:50.362Z,15.00
2022-10-05T08:16:18.791Z,15.20
2022-10-05T08:18:56.015Z,15.40
2022-10-05T08:21:27.416Z,15.40
2022-10-05T08:23:58.101Z,16.10
2022-10-05T08:26:35.291Z,15.60
2022-10-05T08:29:14.043Z,15.70
2022-10-05T08:31:44.031Z,15.60
2022-10-05T08:34:22.537Z,15.70
2022-10-05T08:36:59.265Z,15.80
2022-10-05T08:39:31.959Z,15.60
2022-10-05T08:42:35.764Z,15.70
2022-10-05T08:45:31.793Z,15.70
2022-10-05T08:48:44.717Z,15.70
2022-10-05T08:51:29.254Z,15.80
2022-10-05T08:54:20.163Z,15.90
2022-10-05T08:56:56.150Z,15.90
2022-10-05T08:59:57.051Z,15.90
2022-10-05T09:02:37.119Z,16.00
2022-10-05T09:05:22.904Z,16.00
2022-10-05T09:08:29.785Z,17.10
2022-10-05T09:11:06.932Z,15.90
2022-10-05T09:13:48.642Z,16.00
2022-10-05T09:16:35.531Z,15.90
2022-10-05T09:19:49.988Z,15.90
2022-10-05T09:22:32.391Z,15.80
2022-10-05T09:25:13.931Z,15.70
2022-10-05T09:27:49.387Z,15.70
2022-10-05T09:30:27.425Z,15.60
2022-10-05T09:33:25.868Z,15.50
2022-10-05T09:36:24.361Z,15.50
2022-10-05T09:39:19.224Z,15.40
2022-10-05T09:42:34.125Z,15.50
2022-10-05T09:45:41.258Z,15.70
2022-10-05T09:48:43.124Z,15.80
2022-10-05T09:51:44.055Z,15.90
2022-10-05T09:54:39.131Z,16.00
2022-10-05T09:57:34.245Z,16.00
2022-10-05T10:00:09.398Z,16.40
2022-10-05T10:03:02.698Z,16.40
2022-10-05T10:05:50.614Z,16.50
2022-10-05T10:08:39.692Z,16.50
2022-10-05T10:11:23.316Z,16.60
2022-10-05T10:14:12.924Z,16.70
2022-10-05T10:17:08.304Z,16.80
2022-10-05T10:20:00.364Z,17.00
2022-10-05T10:23:17.942Z,16.90
2022-10-05T10:26:19.750Z,16.90
2022-10-05T10:29:23.164Z,17.00
2022-10-05T10:32:19.759Z,17.00
2022-10-05T10:35:06.631Z,17.10
2022-10-05T10:38:07.934Z,17.10
2022-10-05T10:40:42.364Z,17.00
2022-10-05T10:43:35.473Z,17.10
2022-10-05T10:46:11.932Z,17.10
2022-10-05T10:48:55.939Z,17.10
2022-10-05T10:51:52.098Z,17.20
2022-10-05T10:54:57.575Z,17.20
2022-10-05T10:57:31.902Z,17.10
2022-10-05T11:00:21.110Z,17.20
2022-10-05T11:03:03.611Z,17.10
2022-10-05T11:05:54.090Z,17.00
2022-10-05T11:08:46.456Z,17.10
2022-10-05T11:11:26.883Z,17.10
2022-10-05T11:14:33.553Z,16.90
2022-10-05T11:17:31.763Z,17.80
2022-10-05T11:20:17.599Z,16.70
2022-10-05T11:22:56.021Z,16.80
2022-10-05T11:25:44.154Z,16.70
2022-10-05T11:28:34.598Z,16.60
2022-10-05T11:31:26.994Z,16.60
2022-10-05T11:34:30.226Z,16.70
2022-10-05T11:37:17.016Z,16.90
2022-10-05T11:40:12.533Z,17.00
2022-10-05T11:43:12.178Z,17.20
2022-10-05T11:45:56.161Z,17.30
2022-10-05T11:48:47.737Z,17.30
2022-10-05T11:51:34.249Z,17.30
2022-10-05T11:54:17.539Z,17.40
2022-10-05T11:56:54.507Z,17.50
2022-10-05T11:59:27.634Z,17.50
2022-10-05T12:02:04.225Z,17.60
2022-10-05T12:04:41.466Z,17.50
2022-10-05T12:07:16.298Z,17.50
2022-10-05T12:10:14.491Z,17.60
2022-10-05T12:13:02.574Z,17.70
2022-10-05T12:15:41.820Z,17.90
2022-10-05T12:18:15.602Z,18.00
2022-10-05T12:20:48.981Z,19.10
2022-10-05T12:23:25.211Z,18.20
2022-10-05T12:25:58.277Z,18.20
2022-10-05T12:28:36.292Z,18.40
2022-10-05T12:31:18.788Z,18.50
2022-10-05T12:33:53.589Z,18.40
2022-10-05T12:36:35.982Z,18.30
2022-10-05T12:39:21.260Z,18.40
2022-10-05T12:41:55.053Z,18.30
2022-10-05T12:44:38.123Z,18.20
2022-10-05T12:47:12.342Z,18.10
2022-10-05T12:49:52.855Z,18.60
2022-10-05T12:52:32.701Z,18.20
2022-10-05T12:55:08.373Z,18.20
2022-10-05T12:57:45.728Z,18.10
2022-10-05T13:00:21.891Z,18.30
2022-10-05T13:02:54.376Z,18.00
2022-10-05T13:05:29.950Z,18.10
2022-10-05T13:08:23.860Z,18.00
2022-10-05T13:10:59.932Z,17.90
2022-10-05T13:13:39.500Z,17.90
2022-10-05T13:16:26.365Z,17.90
2022-10-05T13:19:07.218Z,17.90
2022-10-05T13:21:55.584Z,17.90
2022-10-05T13:24:26.678Z,18.00
2022-10-05T13:26:58.087Z,17.90
2022-10-05T13:29:30.327Z,17.90
2022-10-05T13:32:00.534Z,17.80
2022-10-05T13:34:37.395Z,17.80
2022-10-05T13:37:12.438Z,17.80
2022-10-05T13:39:56.721Z,18.00
2022-10-05T13:42:32.154Z,17.80
2022-10-05T13:45:03.253Z,17.70
2022-10-05T13:47:34.357Z,17.70
2022-10-05T13:50:13.768Z,17.70
2022-10-05T13:52:51.190Z,17.80
2022-10-05T13:55:30.110Z,17.80
2022-10-05T13:58:05.728Z,17.80
2022-10-05T14:00:40.557Z,18.60
2022-10-05T14:03:24.628Z,17.70
2022-10-05T14:05:58.289Z,17.80
2022-10-05T14:08:28.918Z,17.70
2022-10-05T14:10:56.886Z,17.80
2022-10-05T14:13:27.067Z,17.80
2022-10-05T14:16:01.740Z,17.80
2022-10-05T14:18:32.661Z,17.80
2022-10-05T14:21:17.313Z,17.70
2022-10-05T14:23:44.767Z,17.70
2022-10-05T14:26:18.977Z,17.70
2022-10-05T14:28:58.749Z,17.70
2022-10-05T14:31:30.941Z,17.70
2022-10-05T14:34:16.593Z,17.70
2022-10-05T14:36:44.778Z,17.70
2022-10-05T14:39:12.861Z,17.70
2022-10-05T14:41:46.304Z,18.10
2022-10-05T14:44:27.781Z,17.80
2022-10-05T14:46:56.599Z,17.70
2022-10-05T14:49:25.657Z,17.70
2022-10-05T14:51:55.472Z,17.70
2022-10-05T14:54:25.123Z,17.70
2022-10-05T14:57:00.021Z,17.80
2022-10-05T14:59:46.700Z,18.40
2022-10-05T15:02:31.672Z,17.70
2022-10-05T15:05:02.243Z,17.70
2022-10-05T15:07:37.402Z,17.70
2022-10-05T15:10:19.570Z,17.70
2022-10-05T15:12:48.511Z,17.70
2022-10-05T15:15:26.990Z,17.70
2022-10-05T15:17:59.319Z,17.80
2022-10-05T15:20:33.030Z,17.70
2022-10-05T15:23:13.488Z,17.70
2022-10-05T15:25:50.365Z,17.70
2022-10-05T15:28:33.333Z,17.70
2022-10-05T15:31:03.975Z,17.60
2022-10-05T15:33:38.003Z,17.60
2022-10-05T15:36:11.507Z,17.60
2022-10-05T15:38:49.869Z,17.60
2022-10-05T15:41:21.892Z,17.60
2022-10-05T15:43:58.945Z,17.60
2022-10-05T15:46:34.401Z,17.60
2022-10-05T15:49:13.736Z,17.60
2022-10-05T15:51:52.262Z,17.60
2022-10-05T15:54:41.905Z,17.50
2022-10-05T15:57:16.091Z,17.50
2022-10-05T15:59:56.468Z,17.50
2022-10-05T16:02:29.731Z,17.50
2022-10-05T16:05:11.484Z,17.50
2022-10-05T16:08:02.083Z,17.50
2022-10-05T16:10:35.290Z,17.50
2022-10-05T16:13:14.870Z,17.60
2022-10-05T16:15:48.485Z,17.40
2022-10-05T16:18:42.806Z,17.40
2022-10-05T16:21:23.706Z,17.40
2022-10-05T16:24:05.689Z,17.30
2022-10-05T16:26:51.104Z,17.30
2022-10-05T16:29:29.978Z,17.20
2022-10-05T16:32:04.264Z,17.20
2022-10-05T16:34:44.953Z,17.10
2022-10-05T16:37:16.604Z,17.10
2022-10-05T16:39:49.590Z,17.10
2022-10-05T16:42:26.218Z,17.10
2022-10-05T16:44:58.806Z,18.10
2022-10-05T16:47:38.046Z,16.80
2022-10-05T16:50:17.785Z,16.80
2022-10-05T16:52:46.685Z,16.80
2022-10-05T16:55:20.066Z,17.20
2022-10-05T16:57:55.507Z,16.70
2022-10-05T17:00:24.925Z,16.60
2022-10-05T17:03:05.901Z,16.50
2022-10-05T17:05:44.292Z,16.40
2022-10-05T17:08:33.508Z,16.40
2022-10-05T17:11:12.372Z,17.90
2022-10-05T17:14:06.974Z,16.40
2022-10-05T17:16:46.560Z,16.30
2022-10-05T17:19:26.800Z,16.50
2022-10-05T17:22:00.957Z,16.20
2022-10-05T17:24:42.748Z,16.10
2022-10-05T17:27:25.809Z,18.70
2022-10-05T17:30:15.461Z,16.10
2022-10-05T17:32:55.633Z,16.00
2022-10-05T17:35:41.771Z,16.00
2022-10-05T17:38:17.118Z,16.10
2022-10-05T17:41:05.349Z,16.20
2022-10-05T17:43:33.261Z,16.20
2022-10-05T17:46:02.710Z,16.00
2022-10-05T17:48:38.100Z,16.80
2022-10-05T17:51:35.563Z,16.00
2022-10-05T17:54:36.674Z,16.10
2022-10-05T17:57:21.133Z,16.00
2022-10-05T17:59:58.202Z,16.10
2022-10-05T18:02:42.617Z,16.00
2022-10-05T18:05:30.525Z,16.10
2022-10-05T18:08:31.848Z,16.10
2022-10-05T18:11:17.323Z,16.10
2022-10-05T18:13:50.242Z,16.10
2022-10-05T18:16:50.736Z,16.20
2022-10-05T18:19:23.067Z,16.20
2022-10-05T18:22:10.074Z,16.20
2022-10-05T18:25:03.618Z,16.20
2022-10-05T18:27:48.148Z,16.20
2022-10-05T18:30:20.364Z,16.20
2022-10-05T18:33:44.346Z,16.20
2022-10-05T18:36:24.014Z,16.20
2022-10-05T18:39:00.030Z,16.20
2022-10-05T18:41:39.155Z,16.20
2022-10-05T18:44:30.409Z,16.20
2022-10-05T18:47:01.919Z,16.20
2022-10-05T18:49:49.294Z,16.20
2022-10-05T18:52:24.353Z,16.20
2022-10-05T18:54:59.375Z,16.70
2022-10-05T18:57:45.730Z,16.20
2022-10-05T19:00:16.874Z,16.30
2022-10-05T19:02:48.369Z,16.10
2022-10-05T19:05:48.648Z,16.20
2022-10-05T19:08:27.887Z,16.20
2022-10-05T19:11:00.701Z,16.20
2022-10-05T19:13:37.709Z,16.20
2022-10-05T19:16:22.460Z,16.30
2022-10-05T19:21:27.637Z,16.30
2022-10-05T19:24:14.444Z,16.30
2022-10-05T19:27:00.087Z,16.40
2022-10-05T19:29:41.174Z,16.40
2022-10-05T19:32:18.418Z,16.50
2022-10-05T19:34:57.072Z,16.50
2022-10-05T19:37:33.169Z,16.40
2022-10-05T19:40:09.607Z,16.40
2022-10-05T19:42:55.056Z,16.50
2022-10-05T19:45:24.350Z,16.50
2022-10-05T19:48:05.798Z,16.60
2022-10-05T19:50:34.349Z,16.60
2022-10-05T19:53:11.354Z,17.00
2022-10-05T19:55:41.620Z,16.70
2022-10-05T19:58:20.416Z,16.60
2022-10-05T20:00:57.181Z,18.20
2022-10-05T20:03:29.052Z,16.60
2022-10-05T20:05:57.747Z,16.60
2022-10-05T20:08:27.082Z,16.60
2022-10-05T20:11:06.874Z,16.70
2022-10-05T20:13:35.140Z,16.70
2022-10-05T20:16:48.602Z,16.80
2022-10-05T20:19:56.360Z,16.80
2022-10-05T20:22:26.398Z,16.70
2022-10-05T20:24:54.836Z,16.70
2022-10-05T20:27:45.212Z,16.70
2022-10-05T20:30:14.414Z,16.60
2022-10-05T20:32:41.978Z,16.50
2022-10-05T20:35:09.190Z,16.50
2022-10-05T20:37:36.734Z,16.40
2022-10-05T20:40:04.968Z,16.30
2022-10-05T20:42:31.973Z,16.30
2022-10-05T20:45:00.305Z,16.30
2022-10-05T20:49:54.584Z,16.30
2022-10-05T20:52:23.029Z,16.40
2022-10-05T20:54:53.430Z,16.30
2022-10-05T20:57:24.930Z,16.30
2022-10-05T20:59:52.007Z,17.90
2022-10-05T21:02:20.311Z,16.30
2022-10-05T21:04:50.393Z,16.30
2022-10-05T21:07:20.861Z,16.30
2022-10-05T21:09:47.820Z,16.40
2022-10-05T21:12:16.316Z,16.40
2022-10-05T21:14:43.290Z,16.50
2022-10-05T21:17:11.926Z,16.90
2022-10-05T21:19:40.348Z,16.50
2022-10-05T21:22:08.842Z,16.50
2022-10-05T21:24:36.909Z,16.50
2022-10-05T21:27:04.363Z,16.50
2022-10-05T21:29:31.849Z,16.50
2022-10-05T21:31:58.787Z,16.50
2022-10-05T21:34:25.896Z,16.50
2022-10-05T21:36:54.065Z,16.50
2022-10-05T21:39:20.922Z,16.50
2022-10-05T21:41:49.624Z,16.40
2022-10-05T21:44:16.746Z,16.40
2022-10-05T21:46:43.676Z,16.30
2022-10-05T21:49:10.823Z,16.30
2022-10-05T21:51:39.174Z,16.30
2022-10-05T21:54:11.617Z,16.30
2022-10-05T21:56:41.627Z,16.30
2022-10-05T21:59:12.892Z,16.20
2022-10-05T22:01:39.692Z,16.20
2022-10-05T22:04:07.404Z,16.20
2022-10-05T22:06:35.065Z,16.10
2022-10-05T22:09:02.340Z,16.10
2022-10-05T22:11:31.575Z,16.10
2022-10-05T22:14:04.214Z,16.10
2022-10-05T22:16:32.915Z,16.20
2022-10-05T22:19:03.132Z,16.20
2022-10-05T22:21:30.137Z,16.20
2022-10-05T22:23:57.056Z,16.30
2022-10-05T22:26:24.508Z,16.30
2022-10-05T22:28:56.253Z,16.30
2022-10-05T22:31:23.836Z,16.40
2022-10-05T22:33:51.201Z,16.40
2022-10-05T22:36:18.521Z,16.50
2022-10-05T22:38:47.420Z,17.50
2022-10-05T22:41:16.344Z,17.20
2022-10-05T22:43:43.177Z,16.50
2022-10-05T22:46:13.267Z,16.60
2022-10-05T22:48:40.502Z,16.60
2022-10-05T22:51:07.975Z,16.60
2022-10-05T22:53:34.854Z,16.60
2022-10-05T22:56:06.702Z,16.60
2022-10-05T22:58:33.547Z,16.70
2022-10-05T23:01:03.494Z,16.70
2022-10-05T23:03:32.490Z,16.70
2022-10-05T23:06:03.014Z,16.80
2022-10-05T23:08:30.492Z,16.70
2022-10-05T23:11:01.858Z,16.80
2022-10-05T23:13:28.746Z,16.80
2022-10-05T23:15:55.787Z,16.80
2022-10-05T23:18:22.708Z,16.80
2022-10-05T23:20:55.057Z,16.70
2022-10-05T23:23:23.043Z,16.80
2022-10-05T23:25:49.837Z,16.80
2022-10-05T23:28:16.673Z,16.80
2022-10-05T23:30:43.607Z,16.80
2022-10-05T23:33:10.445Z,16.80
2022-10-05T23:35:37.232Z,17.00
2022-10-05T23:38:05.396Z,16.80
2022-10-05T23:40:32.285Z,16.20
2022-10-05T23:43:00.502Z,15.80
2022-10-05T23:45:27.397Z,15.50
2022-10-05T23:47:54.183Z,15.30
2022-10-05T23:50:21.395Z,15.10
2022-10-05T23:52:48.374Z,14.90
2022-10-05T23:55:16.663Z,16.00
